createdAt,value
2019-01-10T00:01:27.781Z,69.49
2019-01-10T00:03:59.166Z,69.44
2019-01-10T00:06:30.555Z,69.51
2019-01-10T00:09:01.913Z,69.53
2019-01-10T00:11:34.976Z,69.67
2019-01-10T00:14:06.370Z,69.60
2019-01-10T00:16:37.814Z,69.99
2019-01-10T00:19:09.144Z,69.38
2019-01-10T00:21:40.595Z,69.50
2019-01-10T00:24:14.638Z,69.45
2019-01-10T00:26:46.071Z,69.39
2019-01-10T00:29:17.396Z,69.42
2019-01-10T00:31:48.772Z,69.26
2019-01-10T00:34:21.759Z,69.25
2019-01-10T00:36:53.052Z,68.89
2019-01-10T00:39:24.434Z,68.95
2019-01-10T00:41:55.994Z,68.56
2019-01-10T00:44:27.318Z,68.62
2019-01-10T00:46:58.768Z,68.20
2019-01-10T00:49:30.086Z,68.78
2019-01-10T00:52:01.388Z,68.24
2019-01-10T00:54:32.838Z,68.29
2019-01-10T00:57:04.364Z,68.43
2019-01-10T00:59:35.762Z,68.71
2019-01-10T01:02:07.135Z,68.69
2019-01-10T01:04:38.553Z,68.77
2019-01-10T01:07:10.014Z,68.37
2019-01-10T01:09:41.366Z,68.17
2019-01-10T01:12:12.838Z,68.00
2019-01-10T01:14:44.152Z,67.91
2019-01-10T01:17:15.962Z,67.46
2019-01-10T01:19:48.463Z,67.26
2019-01-10T01:22:19.844Z,67.51
2019-01-10T01:24:51.316Z,67.20
2019-01-10T01:27:22.801Z,67.36
2019-01-10T01:29:54.126Z,67.26
2019-01-10T01:32:25.558Z,67.63
2019-01-10T01:34:57.007Z,67.71
2019-01-10T01:37:28.369Z,67.36
2019-01-10T01:39:59.760Z,67.54
2019-01-10T01:42:31.126Z,68.00
2019-01-10T01:45:02.520Z,68.19
2019-01-10T01:47:35.041Z,68.63
2019-01-10T01:50:13.952Z,68.96
2019-01-10T01:52:46.479Z,69.67
2019-01-10T01:55:17.891Z,70.13
2019-01-10T01:57:49.444Z,70.51
2019-01-10T02:00:24.982Z,70.54
2019-01-10T02:02:59.311Z,70.67
2019-01-10T02:05:30.763Z,71.06
2019-01-10T02:08:05.392Z,71.18
2019-01-10T02:10:36.766Z,71.48
2019-01-10T02:13:16.313Z,71.40
2019-01-10T02:15:41.079Z,71.58
2019-01-10T02:18:14.045Z,71.58
2019-01-10T02:20:45.305Z,71.63
2019-01-10T02:23:18.420Z,71.21
2019-01-10T02:25:49.812Z,71.14
2019-01-10T02:28:21.279Z,70.91
2019-01-10T02:30:53.338Z,70.35
2019-01-10T02:33:24.632Z,69.84
2019-01-10T02:35:55.979Z,69.53
2019-01-10T02:38:27.247Z,69.12
2019-01-10T02:40:58.533Z,69.14
2019-01-10T02:43:29.838Z,68.55
2019-01-10T02:46:01.121Z,68.59
2019-01-10T02:48:34.164Z,68.18
2019-01-10T02:51:05.548Z,68.62
2019-01-10T02:53:36.922Z,68.11
2019-01-10T02:56:08.387Z,68.20
2019-01-10T02:58:39.700Z,68.50
2019-01-10T03:01:11.012Z,68.34
2019-01-10T03:03:42.424Z,68.57
2019-01-10T03:06:13.671Z,68.37
2019-01-10T03:08:45.189Z,68.13
2019-01-10T03:11:24.887Z,68.14
2019-01-10T03:13:56.304Z,68.33
2019-01-10T03:16:27.549Z,68.23
2019-01-10T03:18:58.972Z,68.38
2019-01-10T03:21:30.359Z,68.63
2019-01-10T03:24:01.659Z,68.69
2019-01-10T03:26:32.907Z,68.67
2019-01-10T03:29:04.385Z,68.54
2019-01-10T03:31:35.732Z,68.53
2019-01-10T03:34:07.102Z,69.05
2019-01-10T03:36:38.526Z,68.82
2019-01-10T03:39:10.107Z,68.54
2019-01-10T03:41:41.922Z,68.23
2019-01-10T03:44:13.469Z,68.36
2019-01-10T03:46:44.799Z,68.30
2019-01-10T03:49:16.101Z,68.24
2019-01-10T03:51:47.344Z,68.37
2019-01-10T03:54:18.744Z,68.04
2019-01-10T03:56:50.151Z,68.28
2019-01-10T03:59:23.771Z,68.25
2019-01-10T04:01:55.029Z,68.44
2019-01-10T04:04:26.381Z,68.69
2019-01-10T04:07:09.825Z,68.32
2019-01-10T04:09:41.172Z,68.43
2019-01-10T04:12:12.502Z,67.94
2019-01-10T04:14:43.840Z,68.46
2019-01-10T04:17:15.173Z,68.70
2019-01-10T04:19:46.627Z,68.04
2019-01-10T04:22:18.107Z,68.31
2019-01-10T04:24:49.398Z,68.58
2019-01-10T04:27:23.428Z,68.19
2019-01-10T04:29:54.757Z,68.05
2019-01-10T04:32:37.473Z,68.11
2019-01-10T04:35:09.490Z,68.04
2019-01-10T04:37:41.229Z,68.35
2019-01-10T04:40:22.037Z,68.49
2019-01-10T04:42:53.382Z,68.29
2019-01-10T04:45:24.780Z,68.24
2019-01-10T04:47:56.959Z,68.50
2019-01-10T04:50:28.346Z,68.24
2019-01-10T04:53:01.229Z,68.06
2019-01-10T04:55:32.696Z,68.36
2019-01-10T04:58:07.145Z,67.79
2019-01-10T05:00:41.317Z,67.61
2019-01-10T05:03:12.961Z,67.81
2019-01-10T05:05:44.263Z,67.99
2019-01-10T05:08:15.639Z,67.96
2019-01-10T05:10:46.937Z,68.03
2019-01-10T05:13:18.192Z,67.96
2019-01-10T05:15:49.559Z,68.08
2019-01-10T05:18:20.883Z,68.22
2019-01-10T05:20:52.263Z,68.47
2019-01-10T05:23:23.754Z,68.23
2019-01-10T05:25:55.127Z,68.52
2019-01-10T05:28:26.543Z,68.50
2019-01-10T05:30:58.077Z,68.59
2019-01-10T05:33:29.525Z,68.32
2019-01-10T05:36:01.052Z,68.50
2019-01-10T05:38:32.573Z,68.32
2019-01-10T05:41:08.999Z,68.04
2019-01-10T05:43:39.617Z,68.49
2019-01-10T05:46:11.180Z,67.91
2019-01-10T05:48:47.169Z,68.25
2019-01-10T05:51:15.793Z,68.51
2019-01-10T05:53:47.106Z,67.66
2019-01-10T05:56:19.547Z,68.12
2019-01-10T05:58:50.842Z,67.93
2019-01-10T06:01:22.277Z,68.01
2019-01-10T06:03:55.434Z,68.03
2019-01-10T06:06:26.878Z,68.21
2019-01-10T06:08:58.409Z,68.19
2019-01-10T06:11:29.844Z,68.21
2019-01-10T06:14:01.181Z,68.33
2019-01-10T06:16:32.687Z,68.58
2019-01-10T06:19:04.250Z,68.54
2019-01-10T06:21:35.714Z,69.04
2019-01-10T06:24:07.240Z,68.45
2019-01-10T06:26:38.667Z,68.51
2019-01-10T06:29:10.375Z,68.26
2019-01-10T06:31:41.987Z,68.44
2019-01-10T06:34:13.511Z,68.74
2019-01-10T06:36:44.897Z,68.58
2019-01-10T06:39:19.473Z,68.58
2019-01-10T06:41:49.462Z,68.55
2019-01-10T06:44:21.587Z,68.64
2019-01-10T06:46:53.321Z,68.90
2019-01-10T06:49:24.900Z,68.73
2019-01-10T06:51:56.313Z,68.92
2019-01-10T06:54:27.703Z,68.79
2019-01-10T06:56:59.190Z,68.65
2019-01-10T06:59:30.425Z,68.81
2019-01-10T07:02:02.024Z,68.95
2019-01-10T07:04:33.541Z,68.40
2019-01-10T07:07:05.017Z,68.76
2019-01-10T07:09:36.581Z,68.59
2019-01-10T07:12:07.994Z,68.88
2019-01-10T07:14:39.305Z,68.56
2019-01-10T07:17:10.603Z,68.99
2019-01-10T07:19:45.005Z,68.71
2019-01-10T07:22:17.056Z,68.41
2019-01-10T07:24:53.572Z,68.47
2019-01-10T07:27:25.235Z,68.58
2019-01-10T07:29:59.642Z,69.08
2019-01-10T07:32:31.357Z,68.74
2019-01-10T07:35:04.079Z,68.83
2019-01-10T07:37:37.024Z,69.24
2019-01-10T07:40:16.512Z,69.36
2019-01-10T07:42:50.778Z,69.20
2019-01-10T07:45:24.453Z,69.19
2019-01-10T07:47:56.036Z,69.49
2019-01-10T07:50:31.381Z,69.10
2019-01-10T07:53:02.830Z,69.19
2019-01-10T07:55:34.044Z,68.91
2019-01-10T07:58:07.534Z,69.08
2019-01-10T08:00:38.924Z,68.50
2019-01-10T08:03:10.547Z,68.74
2019-01-10T08:05:41.888Z,69.08
2019-01-10T08:08:14.307Z,68.99
2019-01-10T08:10:45.889Z,68.87
2019-01-10T08:13:17.188Z,68.77
2019-01-10T08:15:48.593Z,69.06
2019-01-10T08:18:19.889Z,69.01
2019-01-10T08:20:51.205Z,69.09
2019-01-10T08:23:22.539Z,69.05
2019-01-10T08:25:53.910Z,69.02
2019-01-10T08:28:25.200Z,69.03
2019-01-10T08:30:56.562Z,68.78
2019-01-10T08:33:27.862Z,69.26
2019-01-10T08:35:59.228Z,68.85
2019-01-10T08:38:30.593Z,68.96
2019-01-10T08:41:01.966Z,68.68
2019-01-10T08:43:34.892Z,68.83
2019-01-10T08:46:06.239Z,69.07
2019-01-10T08:48:37.651Z,69.51
2019-01-10T08:51:08.952Z,68.77
2019-01-10T08:53:40.319Z,68.67
2019-01-10T08:56:11.609Z,69.15
2019-01-10T08:58:43.038Z,68.31
2019-01-10T09:01:14.262Z,68.68
2019-01-10T09:03:45.606Z,68.78
2019-01-10T09:06:18.593Z,68.30
2019-01-10T09:08:50.838Z,68.42
2019-01-10T09:11:22.375Z,68.59
2019-01-10T09:13:53.726Z,68.62
2019-01-10T09:16:24.985Z,68.48
2019-01-10T09:18:56.394Z,68.12
2019-01-10T09:21:27.685Z,67.96
2019-01-10T09:23:58.960Z,68.66
2019-01-10T09:26:37.736Z,68.19
2019-01-10T09:29:03.177Z,68.32
2019-01-10T09:31:34.406Z,67.68
2019-01-10T09:34:05.846Z,67.42
2019-01-10T09:36:37.953Z,67.67
2019-01-10T09:39:09.618Z,67.54
2019-01-10T09:41:40.982Z,68.05
2019-01-10T09:44:14.335Z,67.49
2019-01-10T09:46:46.987Z,68.16
2019-01-10T09:49:18.265Z,67.95
2019-01-10T09:51:49.567Z,67.79
2019-01-10T09:54:20.836Z,67.34
2019-01-10T09:56:52.069Z,67.73
2019-01-10T09:59:23.409Z,67.95
2019-01-10T10:01:54.773Z,67.74
2019-01-10T10:04:26.129Z,67.24
2019-01-10T10:06:58.993Z,66.88
2019-01-10T10:09:30.297Z,66.61
2019-01-10T10:12:01.531Z,66.96
2019-01-10T10:14:33.482Z,67.19
2019-01-10T10:17:04.758Z,66.57
2019-01-10T10:19:36.043Z,66.24
2019-01-10T10:22:07.470Z,66.64
2019-01-10T10:24:41.423Z,65.95
2019-01-10T10:27:12.983Z,65.53
2019-01-10T10:29:44.392Z,65.55
2019-01-10T10:32:16.415Z,66.40
2019-01-10T10:34:47.965Z,65.69
2019-01-10T10:37:19.530Z,65.58
2019-01-10T10:39:51.094Z,65.06
2019-01-10T10:42:24.768Z,65.21
2019-01-10T10:44:59.296Z,65.49
2019-01-10T10:47:30.560Z,65.53
2019-01-10T10:53:52.710Z,65.45
2019-01-10T10:56:59.342Z,65.46
2019-01-10T10:59:30.925Z,65.84
2019-01-10T11:02:03.751Z,65.16
2019-01-10T11:04:35.522Z,65.35
2019-01-10T11:07:07.921Z,65.69
2019-01-10T11:09:39.199Z,65.03
2019-01-10T11:12:10.674Z,65.87
2019-01-10T11:14:42.093Z,65.26
2019-01-10T11:17:14.855Z,65.41
2019-01-10T11:19:46.238Z,64.86
2019-01-10T11:22:24.690Z,64.78
2019-01-10T11:24:56.597Z,65.20
2019-01-10T11:27:28.035Z,65.11
2019-01-10T11:29:59.286Z,64.38
2019-01-10T11:32:30.757Z,64.41
2019-01-10T11:35:02.280Z,64.81
2019-01-10T11:37:34.524Z,64.35
2019-01-10T11:40:13.482Z,63.34
2019-01-10T11:42:45.059Z,63.77
2019-01-10T11:45:20.094Z,64.22
2019-01-10T11:47:51.660Z,62.68
2019-01-10T11:50:23.149Z,62.78
2019-01-10T11:52:55.078Z,63.07
2019-01-10T11:55:26.860Z,62.85
2019-01-10T11:57:59.929Z,63.08
2019-01-10T12:00:31.984Z,62.62
2019-01-10T12:03:03.483Z,62.83
2019-01-10T12:05:35.586Z,62.87
2019-01-10T12:08:07.015Z,62.76
2019-01-10T12:10:38.452Z,62.72
2019-01-10T12:13:09.872Z,62.67
2019-01-10T12:15:41.283Z,61.94
2019-01-10T12:18:12.767Z,61.59
2019-01-10T12:20:44.063Z,61.69
2019-01-10T12:23:16.999Z,61.80
2019-01-10T12:25:48.294Z,61.88
2019-01-10T12:28:19.939Z,62.12
2019-01-10T12:30:51.239Z,62.58
2019-01-10T12:33:22.690Z,62.57
2019-01-10T12:35:53.943Z,63.76
2019-01-10T12:38:26.223Z,63.58
2019-01-10T12:40:57.552Z,62.50
2019-01-10T12:43:29.942Z,62.82
2019-01-10T12:46:01.524Z,63.37
2019-01-10T12:48:32.914Z,64.18
2019-01-10T12:51:04.378Z,64.84
2019-01-10T12:53:35.896Z,63.87
2019-01-10T12:56:07.347Z,63.31
2019-01-10T12:58:38.783Z,63.44
2019-01-10T13:01:10.326Z,63.80
2019-01-10T13:03:41.755Z,63.81
2019-01-10T13:06:15.143Z,63.76
2019-01-10T13:08:46.758Z,64.23
2019-01-10T13:11:18.132Z,64.24
2019-01-10T13:13:51.091Z,63.16
2019-01-10T13:16:23.790Z,62.96
2019-01-10T13:18:55.187Z,63.43
2019-01-10T13:21:26.782Z,63.82
2019-01-10T13:23:58.461Z,63.41
2019-01-10T13:26:30.374Z,64.22
2019-01-10T13:29:01.748Z,64.83
2019-01-10T13:31:33.068Z,64.00
2019-01-10T13:34:04.979Z,63.56
2019-01-10T13:36:36.502Z,64.38
2019-01-10T13:39:09.505Z,64.72
2019-01-10T13:41:41.418Z,63.63
2019-01-10T13:44:13.828Z,64.80
2019-01-10T13:46:45.463Z,64.10
2019-01-10T13:49:22.654Z,64.05
2019-01-10T13:51:54.072Z,64.00
2019-01-10T13:54:28.295Z,64.28
2019-01-10T13:56:59.631Z,63.88
2019-01-10T13:59:31.255Z,63.79
2019-01-10T14:02:03.812Z,63.60
2019-01-10T14:04:35.367Z,63.21
2019-01-10T14:07:07.533Z,63.75
2019-01-10T14:09:39.753Z,63.15
2019-01-10T14:12:13.035Z,62.95
2019-01-10T14:14:46.990Z,63.33
2019-01-10T14:17:19.931Z,63.12
2019-01-10T14:19:54.930Z,62.72
2019-01-10T14:22:26.306Z,63.00
2019-01-10T14:24:57.950Z,62.65
2019-01-10T14:27:40.113Z,62.96
2019-01-10T14:30:30.054Z,62.83
2019-01-10T14:33:01.505Z,62.72
2019-01-10T14:35:33.171Z,62.75
2019-01-10T14:38:04.543Z,63.66
2019-01-10T14:40:36.087Z,61.91
2019-01-10T14:43:11.695Z,62.11
2019-01-10T14:45:44.105Z,62.63
2019-01-10T14:48:15.603Z,63.52
2019-01-10T14:50:47.138Z,62.75
2019-01-10T14:53:19.995Z,62.62
2019-01-10T14:55:54.136Z,62.82
2019-01-10T14:58:25.603Z,63.10
2019-01-10T15:00:58.084Z,62.44
2019-01-10T15:03:29.475Z,62.90
2019-01-10T15:06:01.102Z,61.99
2019-01-10T15:08:32.367Z,62.22
2019-01-10T15:11:04.077Z,61.59
2019-01-10T15:13:35.379Z,61.85
2019-01-10T15:16:06.829Z,61.70
2019-01-10T15:18:38.212Z,61.31
2019-01-10T15:21:09.820Z,61.46
2019-01-10T15:23:41.082Z,61.39
2019-01-10T15:26:13.354Z,62.17
2019-01-10T15:28:45.154Z,62.84
2019-01-10T15:31:16.914Z,62.92
2019-01-10T15:33:48.507Z,62.81
2019-01-10T15:36:25.672Z,62.76
2019-01-10T15:39:00.167Z,63.10
2019-01-10T15:41:32.692Z,63.29
2019-01-10T15:44:04.223Z,62.81
2019-01-10T15:46:35.575Z,62.64
2019-01-10T15:49:14.665Z,62.67
2019-01-10T15:51:47.683Z,62.68
2019-01-10T15:54:19.029Z,62.74
2019-01-10T15:56:52.189Z,63.42
2019-01-10T15:59:25.213Z,63.26
2019-01-10T16:01:56.697Z,63.64
2019-01-10T16:04:27.950Z,63.78
2019-01-10T16:07:00.421Z,63.78
2019-01-10T16:09:37.147Z,63.55
2019-01-10T16:12:05.227Z,63.75
2019-01-10T16:14:37.712Z,64.33
2019-01-10T16:17:10.621Z,63.90
2019-01-10T16:19:41.924Z,64.30
2019-01-10T16:22:13.515Z,64.36
2019-01-10T16:24:45.830Z,64.38
2019-01-10T16:27:17.186Z,64.40
2019-01-10T16:29:48.514Z,64.41
2019-01-10T16:32:19.919Z,64.72
2019-01-10T16:34:52.881Z,64.68
2019-01-10T16:37:24.365Z,64.61
2019-01-10T16:39:55.666Z,64.95
2019-01-10T16:42:27.053Z,64.57
2019-01-10T16:44:58.376Z,65.17
2019-01-10T16:47:31.680Z,65.06
2019-01-10T16:50:07.646Z,65.82
2019-01-10T16:52:39.022Z,65.13
2019-01-10T16:55:12.583Z,65.21
2019-01-10T16:57:50.087Z,65.56
2019-01-10T17:04:18.725Z,65.04
2019-01-10T17:06:50.127Z,65.39
2019-01-10T17:09:27.127Z,65.65
2019-01-10T17:11:58.638Z,66.13
2019-01-10T17:14:30.218Z,65.52
2019-01-10T17:17:01.620Z,65.96
2019-01-10T17:19:33.209Z,65.58
2019-01-10T17:22:05.030Z,65.61
2019-01-10T17:24:36.662Z,65.65
2019-01-10T17:27:08.162Z,66.24
2019-01-10T17:29:39.720Z,65.97
2019-01-10T17:32:11.172Z,65.49
2019-01-10T17:34:42.592Z,65.53
2019-01-10T17:37:14.035Z,65.34
2019-01-10T17:39:45.493Z,65.64
2019-01-10T17:42:17.331Z,66.11
2019-01-10T17:44:52.578Z,66.33
2019-01-10T17:47:24.442Z,66.65
2019-01-10T17:49:55.880Z,66.60
2019-01-10T17:52:30.100Z,66.65
2019-01-10T17:55:02.132Z,66.78
2019-01-10T17:57:33.976Z,66.86
2019-01-10T18:00:11.078Z,66.73
2019-01-10T18:02:43.311Z,66.59
2019-01-10T18:13:41.664Z,66.56
2019-01-10T18:16:14.422Z,66.19
2019-01-10T18:18:46.054Z,65.70
2019-01-10T18:21:17.661Z,65.65
2019-01-10T18:23:49.167Z,65.44
2019-01-10T18:26:20.595Z,65.97
2019-01-10T18:28:52.167Z,65.59
2019-01-10T18:31:23.586Z,65.00
2019-01-10T18:33:55.511Z,64.84
2019-01-10T18:36:27.034Z,64.83
2019-01-10T18:38:58.534Z,64.64
2019-01-10T18:41:30.225Z,64.85
2019-01-10T18:44:01.836Z,64.90
2019-01-10T18:46:36.308Z,65.47
2019-01-10T18:49:08.630Z,66.03
2019-01-10T18:51:40.126Z,65.96
2019-01-10T18:54:11.783Z,66.58
2019-01-10T18:56:43.343Z,65.91
2019-01-10T18:59:16.329Z,65.62
2019-01-10T19:01:47.858Z,65.62
2019-01-10T19:04:19.385Z,65.91
2019-01-10T19:06:50.917Z,65.45
2019-01-10T19:09:22.729Z,65.36
2019-01-10T19:11:54.433Z,65.23
2019-01-10T19:14:26.160Z,64.93
2019-01-10T19:16:57.859Z,65.26
2019-01-10T19:19:29.501Z,64.75
2019-01-10T19:22:00.954Z,64.45
2019-01-10T19:24:32.584Z,64.64
2019-01-10T19:27:06.833Z,64.51
2019-01-10T19:29:38.588Z,64.15
2019-01-10T19:32:15.509Z,64.93
2019-01-10T19:34:46.703Z,65.76
2019-01-10T19:37:18.185Z,66.12
2019-01-10T19:39:51.710Z,66.17
2019-01-10T19:42:23.744Z,65.98
2019-01-10T19:44:55.480Z,65.82
2019-01-10T19:47:27.932Z,65.57
2019-01-10T19:49:59.475Z,65.52
2019-01-10T19:52:31.043Z,65.59
2019-01-10T19:55:02.559Z,65.69
2019-01-10T19:57:34.231Z,65.60
2019-01-10T20:00:28.598Z,65.52
2019-01-10T20:03:00.231Z,66.01
2019-01-10T20:05:31.970Z,65.65
2019-01-10T20:08:04.458Z,66.03
2019-01-10T20:10:35.994Z,65.76
2019-01-10T20:13:07.634Z,66.19
2019-01-10T20:15:39.545Z,66.51
2019-01-10T20:18:16.252Z,66.81
2019-01-10T20:20:44.536Z,66.88
2019-01-10T20:23:16.220Z,66.75
2019-01-10T20:25:49.384Z,66.52
2019-01-10T20:28:20.840Z,66.62
2019-01-10T20:30:52.468Z,66.71
2019-01-10T20:33:23.952Z,66.51
2019-01-10T20:35:55.414Z,66.51
2019-01-10T20:38:35.797Z,66.94
2019-01-10T20:41:07.348Z,65.88
2019-01-10T20:43:38.907Z,66.55
2019-01-10T20:46:10.491Z,66.08
2019-01-10T20:48:42.725Z,66.61
2019-01-10T20:51:14.338Z,66.22
2019-01-10T20:53:45.949Z,66.57
2019-01-10T20:56:17.630Z,66.95
2019-01-10T20:58:49.159Z,65.86
2019-01-10T21:01:21.500Z,65.93
2019-01-10T21:03:53.090Z,66.74
2019-01-10T21:06:25.817Z,66.75
2019-01-10T21:08:58.323Z,66.74
2019-01-10T21:14:00.284Z,66.62
2019-01-10T21:16:31.771Z,66.60
2019-01-10T21:19:03.342Z,66.85
2019-01-10T21:21:35.022Z,66.87
2019-01-10T21:24:06.783Z,66.87
2019-01-10T21:26:38.291Z,67.95
2019-01-10T21:29:09.941Z,66.96
2019-01-10T21:31:41.297Z,66.59
2019-01-10T21:34:12.704Z,67.68
2019-01-10T21:36:44.124Z,67.93
2019-01-10T21:39:16.006Z,68.40
2019-01-10T21:41:47.540Z,68.90
2019-01-10T21:44:18.977Z,68.16
2019-01-10T21:46:50.373Z,68.59
2019-01-10T21:49:21.994Z,68.82
2019-01-10T21:51:53.387Z,68.96
2019-01-10T21:54:27.545Z,68.01
2019-01-10T21:56:59.121Z,68.40
2019-01-10T21:59:30.599Z,69.24
2019-01-10T22:02:02.113Z,69.31
2019-01-10T22:04:33.628Z,69.07
2019-01-10T22:07:04.968Z,69.42
2019-01-10T22:09:36.484Z,69.13
2019-01-10T22:12:07.880Z,69.34
2019-01-10T22:14:39.315Z,69.90
2019-01-10T22:17:10.722Z,70.74
2019-01-10T22:19:42.071Z,69.83
2019-01-10T22:22:13.582Z,70.07
2019-01-10T22:24:46.055Z,69.24
2019-01-10T22:27:17.423Z,69.66
2019-01-10T22:29:48.805Z,68.88
2019-01-10T22:32:21.832Z,70.09
2019-01-10T22:34:53.330Z,70.09
2019-01-10T22:37:28.925Z,69.49
2019-01-10T22:39:57.935Z,70.44
2019-01-10T22:42:29.340Z,70.97
2019-01-10T22:45:00.768Z,71.76
2019-01-10T22:47:33.175Z,71.46
2019-01-10T22:50:09.367Z,71.72
2019-01-10T22:52:40.730Z,70.47
2019-01-10T22:55:14.442Z,71.20
2019-01-10T22:57:45.993Z,70.71
2019-01-10T23:00:57.525Z,71.19
2019-01-10T23:03:34.002Z,70.04
2019-01-10T23:06:05.822Z,70.36
2019-01-10T23:08:42.907Z,70.49
2019-01-10T23:11:18.732Z,70.90
2019-01-10T23:13:57.891Z,70.18
2019-01-10T23:16:29.643Z,69.25
2019-01-10T23:19:01.345Z,71.35
2019-01-10T23:21:32.997Z,70.91
2019-01-10T23:24:06.362Z,70.79
2019-01-10T23:26:37.970Z,70.95
2019-01-10T23:29:09.414Z,70.79
2019-01-10T23:31:40.867Z,70.98
2019-01-10T23:34:12.576Z,71.80
2019-01-10T23:36:48.322Z,72.28
2019-01-10T23:39:19.876Z,72.93
2019-01-10T23:41:51.506Z,72.25
2019-01-10T23:44:22.987Z,71.85
2019-01-10T23:46:54.500Z,71.85
2019-01-10T23:49:26.013Z,71.25
2019-01-10T23:51:58.359Z,70.77
2019-01-10T23:54:29.694Z,70.87
2019-01-10T23:57:01.148Z,71.42
2019-01-10T23:59:32.497Z,71.19
